Current | Forecast
Updated: 8:00 AM +05 on January 20, 2018
Observed at Petropavlosk South Airpor, Kazakhstan
Temperature -4°F
Windchill -20°F
Humidity 85%
Dew Point -8°F
Wind East at 9 mph
Pressure 30.69 in (Steady)
Conditions Partly Cloudy
Visibility 6.2 miles
UV 0 out of 16
Clouds (FEW) : 1700 ft
Yesterday's Maximum 1°F
Yesterday's Minimum -4°F approx.
Yesterday's Heating Degree Days 66 approx.
Sunrise9:37 AM +06
Sunset5:42 PM +06
Moon Rise11:05 AM +06
Moon Set9:17 PM +06
Moon PhaseMoon Phase
Waxing Crescent
Raw METARMETAR UACP 200300Z 09004MPS 9999 FEW017 M20/M22 Q1039 R23/4/2038 NOSIG RMK QFE767/1022


Monday
. High: 64° F.
Tuesday
. High: 71° F.
Wednesday
. High: 64° F.
Thursday
. High: 69° F.
Friday
. High: 57° F.
Saturday
. High: 60° F.
Sunday
. High: 48° F.
Monday
. High: 55° F.

Units: English | Metric

Find the Weather for any City, State or Zipcode, or Country:

U.S. State List | Severe Weather | Tropical Storms | Ski Conditions
United States | Canada | Central America | South America | Asia | Europe | Australia | Africa | Islands

Weather Underground

© Copyright 2018
The Weather Company, LLC